Home   Weather   USA   Sedona   Past weeks
Flag for USA

Past Weather in Sedona, Arizona, USA — Yesterday and Last 2 Weeks

Currently: 55 °F. Sunny. (Weather station: Sedona Airport, USA). See more current weather

Past Weather in Sedona — Graph

°F

Sedona Temperature Yesterday

Maximum temperature yesterday: 70 °F (at 1:35 pm)
Minimum temperature yesterday: 46 °F (at 4:55 am)
Average temperature yesterday: 55 °F

High & Low Weather Summary for the Past Weeks

 TemperatureHumidityPressure
High86 °F (Apr 4, 3:15 pm)47% (Apr 14, 4:35 am)30.21 "Hg (Apr 14, 4:35 am)
Low45 °F (Apr 18, 5:15 am)6% (Apr 6, 3:35 pm)29.80 "Hg (Apr 11, 4:35 pm)
Average64 °F19%29.97 "Hg
* Reported Apr 3 9:15 am — Apr 18 9:15 am, Sedona. Weather by CustomWeather, © 2021

Note: Actual official high and low records may vary slightly from our data, if they occured in-between our weather recording intervals... More about our weather records

Sedona Weather History for the Previous 24 Hours

Scroll right to see more
 ConditionsComfort  
Time TempWeatherWind HumidityBarometerVisibility
9:15 am
Sun, Apr 18
55 °FSunny.14 mph38%30.10 "Hg10 mi
8:55 am54 °FSunny.21 mph41%30.10 "Hg10 mi
8:35 am54 °FSunny.18 mph41%30.09 "Hg10 mi
8:15 am52 °FSunny.22 mph44%30.09 "Hg10 mi
7:55 am50 °FSunny.17 mph47%30.09 "Hg10 mi
7:35 am48 °FSunny.20 mph46%30.09 "Hg10 mi
7:15 am46 °FSunny.18 mph46%30.08 "Hg10 mi
6:35 am45 °FSunny.17 mph39%30.07 "Hg10 mi
6:15 am45 °FSunny.13 mph39%30.07 "Hg10 mi
5:55 am45 °FSunny.15 mph39%30.06 "Hg10 mi
5:35 am45 °FClear.15 mph39%30.06 "Hg10 mi
5:15 am45 °FClear.14 mph39%30.06 "Hg10 mi
4:55 am46 °FClear.14 mph37%30.05 "Hg10 mi
4:35 am46 °FClear.17 mph37%30.06 "Hg10 mi
4:15 am46 °FClear.16 mph37%30.05 "Hg10 mi
3:55 am46 °FClear.14 mph37%30.05 "Hg10 mi
3:35 am46 °FClear.17 mph37%30.04 "Hg10 mi
3:15 am46 °FClear.12 mph37%30.04 "Hg10 mi
2:55 am46 °FClear.15 mph34%30.04 "Hg10 mi
2:35 am46 °FClear.15 mph34%30.04 "Hg10 mi
2:15 am48 °FClear.17 mph32%30.04 "Hg10 mi
1:55 am48 °FClear.20 mph29%30.04 "Hg10 mi
1:35 am50 °FClear.17 mph28%30.04 "Hg10 mi
1:15 am50 °FClear.17 mph28%30.04 "Hg10 mi
12:55 am50 °FClear.15 mph25%30.05 "Hg10 mi
12:35 am50 °FClear.14 mph25%30.06 "Hg10 mi
12:15 am50 °FClear.16 mph25%30.06 "Hg10 mi
11:55 pm
Sat, Apr 17
50 °FClear.12 mph28%30.06 "Hg10 mi
11:35 pm50 °FClear.15 mph28%30.06 "Hg10 mi
11:15 pm50 °FClear.16 mph30%30.06 "Hg10 mi
10:55 pm50 °FClear.16 mph30%30.06 "Hg10 mi
10:35 pm52 °FPassing clouds.16 mph30%30.06 "Hg10 mi
10:15 pm52 °FPassing clouds.13 mph30%30.06 "Hg10 mi
9:55 pm52 °FPassing clouds.10 mph32%30.06 "Hg10 mi
9:35 pm52 °FPassing clouds.10 mph32%30.05 "Hg10 mi
9:15 pm52 °FPassing clouds.9 mph32%30.05 "Hg10 mi
8:55 pm52 °FPassing clouds.9 mph38%30.05 "Hg10 mi
8:35 pm52 °FPartly cloudy.10 mph38%30.04 "Hg10 mi
8:15 pm54 °FMostly cloudy.7 mph33%30.04 "Hg10 mi
7:55 pm54 °FPassing clouds.12 mph35%30.04 "Hg10 mi
7:35 pm52 °FPassing clouds.8 mph38%30.03 "Hg10 mi
7:15 pm54 °FPartly cloudy.10 mph35%30.02 "Hg10 mi
6:55 pm54 °FSunny.13 mph38%30.00 "Hg10 mi
6:35 pm54 °FSunny.16 mph38%30.00 "Hg10 mi
6:15 pm55 °FScattered clouds.15 mph38%29.99 "Hg10 mi
5:55 pm55 °FPartly sunny.15 mph38%29.99 "Hg10 mi
5:35 pm55 °FBroken clouds.14 mph38%29.99 "Hg10 mi
5:15 pm55 °FMore clouds than sun.14 mph38%29.99 "Hg10 mi
4:55 pm55 °FBroken clouds.13 mph41%29.99 "Hg10 mi
4:35 pm59 °FPartly sunny.14 mph34%29.98 "Hg10 mi
4:15 pm59 °FPartly sunny.21 mph34%29.96 "Hg10 mi
3:55 pm59 °FScattered clouds.10 mph31%29.97 "Hg10 mi
3:35 pm59 °FBroken clouds.8 mph36%29.97 "Hg10 mi
3:15 pm55 °FMore clouds than sun.10 mph41%29.99 "Hg10 mi
2:55 pm57 °FPartly sunny.16 mph39%29.98 "Hg10 mi
2:35 pm61 °FScattered clouds.17 mph34%29.97 "Hg10 mi
2:15 pm63 °FScattered clouds.16 mph19%29.96 "Hg10 mi
1:55 pm64 °FScattered clouds.12 mph18%29.96 "Hg10 mi
1:35 pm70 °FScattered clouds.7 mph15%29.96 "Hg10 mi
1:15 pm68 °FSunny.8 mph16%29.97 "Hg10 mi
12:55 pm68 °FSunny.20 mph17%29.97 "Hg10 mi
12:35 pm66 °FSunny.14 mph18%29.98 "Hg10 mi
12:15 pm64 °FSunny.6 mph21%29.99 "Hg10 mi
11:55 am63 °FSunny.7 mph22%30.00 "Hg10 mi
11:35 am63 °FSunny.7 mph24%30.00 "Hg10 mi
11:15 am61 °FSunny.6 mph27%30.00 "Hg10 mi
10:55 am61 °FSunny.9 mph25%30.01 "Hg10 mi
10:35 am63 °FSunny.7 mph24%30.00 "Hg10 mi
10:15 am61 °FSunny.3 mph25%30.01 "Hg10 mi
Weather by CustomWeather, © 2021

See weather overview